createdAt,value
2017-03-27T00:00:30.145Z,0
2017-03-27T00:01:11.015Z,0
2017-03-27T00:01:51.895Z,0
2017-03-27T00:02:32.779Z,0
2017-03-27T00:03:13.673Z,0
2017-03-27T00:03:54.549Z,0
2017-03-27T00:04:35.424Z,0
2017-03-27T00:05:16.312Z,0
2017-03-27T00:05:57.195Z,0
2017-03-27T00:06:38.079Z,0
2017-03-27T00:07:18.959Z,0
2017-03-27T00:07:59.844Z,0
2017-03-27T00:08:40.731Z,0
2017-03-27T00:09:21.609Z,0
2017-03-27T00:10:02.494Z,0
2017-03-27T00:10:43.376Z,0
2017-03-27T00:11:24.260Z,0
2017-03-27T00:12:05.145Z,0
2017-03-27T00:12:46.029Z,0
2017-03-27T00:13:26.912Z,0
2017-03-27T00:14:07.793Z,0
2017-03-27T00:14:48.676Z,0
2017-03-27T00:15:29.568Z,0
2017-03-27T00:16:10.447Z,0
2017-03-27T00:16:51.333Z,0
2017-03-27T00:17:32.209Z,0
2017-03-27T00:18:13.091Z,0
2017-03-27T00:18:53.980Z,0
2017-03-27T00:19:34.862Z,0
2017-03-27T00:20:15.746Z,0
2017-03-27T00:20:56.625Z,0
2017-03-27T00:21:37.512Z,0
2017-03-27T00:22:18.399Z,0
2017-03-27T00:22:59.283Z,0
2017-03-27T00:23:40.164Z,0
2017-03-27T00:24:21.046Z,0
2017-03-27T00:25:01.928Z,0
2017-03-27T00:25:42.810Z,0
2017-03-27T00:26:23.686Z,0
2017-03-27T00:27:04.559Z,0
2017-03-27T00:27:45.437Z,0
2017-03-27T00:28:26.321Z,0
2017-03-27T00:29:07.200Z,0
2017-03-27T00:29:48.083Z,0
2017-03-27T00:30:28.972Z,0
2017-03-27T00:31:09.856Z,0
2017-03-27T00:31:50.744Z,0
2017-03-27T00:32:31.653Z,0
2017-03-27T00:33:12.528Z,0
2017-03-27T00:33:53.403Z,0
2017-03-27T00:34:34.286Z,0
2017-03-27T00:35:15.176Z,0
2017-03-27T00:35:56.059Z,0
2017-03-27T00:36:36.936Z,0
2017-03-27T00:37:17.807Z,0
2017-03-27T00:37:58.688Z,0
2017-03-27T00:38:39.566Z,0
2017-03-27T00:39:20.446Z,0
2017-03-27T00:40:01.342Z,0
2017-03-27T00:40:42.216Z,0
2017-03-27T00:41:23.100Z,0
2017-03-27T00:42:03.982Z,0
2017-03-27T00:42:44.861Z,0
2017-03-27T00:43:25.754Z,0
2017-03-27T00:44:06.658Z,0
2017-03-27T00:44:47.541Z,0
2017-03-27T00:45:28.425Z,0
2017-03-27T00:46:09.312Z,0
2017-03-27T00:46:50.199Z,0
2017-03-27T00:47:31.075Z,0
2017-03-27T00:48:11.955Z,0
2017-03-27T00:48:52.830Z,0
2017-03-27T00:49:33.709Z,0
2017-03-27T00:50:14.591Z,0
2017-03-27T00:50:55.470Z,0
2017-03-27T00:51:36.348Z,0
2017-03-27T00:52:17.258Z,0
2017-03-27T00:52:58.113Z,0
2017-03-27T00:53:39.006Z,0
2017-03-27T00:54:19.889Z,0
2017-03-27T00:55:00.786Z,0
2017-03-27T00:55:41.660Z,0
2017-03-27T00:56:22.539Z,0
2017-03-27T00:57:03.418Z,0
2017-03-27T00:57:44.303Z,0
2017-03-27T00:58:25.191Z,0
2017-03-27T00:59:06.061Z,0
2017-03-27T00:59:46.940Z,0
2017-03-27T01:00:27.820Z,0
2017-03-27T01:01:08.703Z,0
2017-03-27T01:01:49.582Z,0
2017-03-27T01:02:30.463Z,0
2017-03-27T01:03:11.344Z,0
2017-03-27T01:03:52.223Z,0
2017-03-27T01:04:33.105Z,0
2017-03-27T01:05:13.985Z,0
2017-03-27T01:05:54.866Z,0
2017-03-27T01:06:35.744Z,0
2017-03-27T01:07:16.625Z,0
2017-03-27T01:07:57.508Z,0
2017-03-27T01:08:38.392Z,0
2017-03-27T01:09:19.265Z,0
2017-03-27T01:10:00.147Z,0
2017-03-27T01:10:41.027Z,0
2017-03-27T01:11:21.904Z,0
2017-03-27T01:12:02.781Z,0
2017-03-27T01:12:43.666Z,0
2017-03-27T01:13:24.570Z,0
2017-03-27T01:14:05.458Z,0
2017-03-27T01:14:46.341Z,0
2017-03-27T01:15:27.225Z,0
2017-03-27T01:16:08.105Z,0
2017-03-27T01:16:48.987Z,0
2017-03-27T01:17:29.867Z,0
2017-03-27T01:18:10.750Z,0
2017-03-27T01:18:51.637Z,0
2017-03-27T01:19:32.510Z,0
2017-03-27T01:20:13.398Z,0
2017-03-27T01:20:54.281Z,0
2017-03-27T01:21:35.159Z,0
2017-03-27T01:22:16.074Z,0
2017-03-27T01:22:56.933Z,0
2017-03-27T01:23:37.828Z,0
2017-03-27T01:24:18.713Z,0
2017-03-27T01:24:59.590Z,0
2017-03-27T01:25:40.477Z,0
2017-03-27T01:26:21.366Z,0
2017-03-27T01:27:02.239Z,0
2017-03-27T01:27:43.125Z,0
2017-03-27T01:28:24.010Z,0
2017-03-27T01:29:04.892Z,0
2017-03-27T01:29:45.774Z,0
2017-03-27T01:30:26.653Z,0
2017-03-27T01:31:07.541Z,0
2017-03-27T01:31:48.423Z,0
2017-03-27T01:32:29.298Z,0
2017-03-27T01:33:10.179Z,0
2017-03-27T01:33:51.067Z,0
2017-03-27T01:34:31.952Z,0
2017-03-27T01:35:12.860Z,0
2017-03-27T01:35:53.721Z,0
2017-03-27T01:36:34.604Z,0
2017-03-27T01:37:15.492Z,0
2017-03-27T01:37:56.373Z,0
2017-03-27T01:38:37.258Z,0
2017-03-27T01:39:18.137Z,0
2017-03-27T01:39:59.029Z,0
2017-03-27T01:40:39.904Z,0
2017-03-27T01:41:20.787Z,0
2017-03-27T01:42:01.671Z,0
2017-03-27T01:42:42.552Z,0
2017-03-27T01:43:23.436Z,0
2017-03-27T01:44:04.323Z,0
2017-03-27T01:44:45.204Z,0
2017-03-27T01:45:26.086Z,0
2017-03-27T01:46:06.965Z,0
2017-03-27T01:46:47.848Z,0
2017-03-27T01:47:28.730Z,0
2017-03-27T01:48:09.595Z,0
2017-03-27T01:48:50.477Z,0
2017-03-27T01:49:31.360Z,0
2017-03-27T01:50:12.247Z,0
2017-03-27T01:50:53.128Z,0
2017-03-27T01:51:34.004Z,0
2017-03-27T01:52:14.894Z,0
2017-03-27T01:52:55.779Z,0
2017-03-27T01:53:36.662Z,0
2017-03-27T01:54:17.550Z,0
2017-03-27T01:54:58.429Z,0
2017-03-27T01:55:39.303Z,0
2017-03-27T01:56:20.187Z,0
2017-03-27T01:57:01.080Z,0
2017-03-27T01:57:41.957Z,0
2017-03-27T01:58:22.843Z,0
2017-03-27T01:59:03.730Z,0
2017-03-27T01:59:44.606Z,0
2017-03-27T02:00:25.484Z,0
2017-03-27T02:01:06.358Z,0
2017-03-27T02:01:47.234Z,0
2017-03-27T02:02:28.104Z,0
2017-03-27T02:03:08.983Z,0
2017-03-27T02:03:49.866Z,0
2017-03-27T02:04:30.745Z,0
2017-03-27T02:05:11.635Z,0
2017-03-27T02:05:52.516Z,0
2017-03-27T02:06:33.403Z,0
2017-03-27T02:07:14.280Z,0
2017-03-27T02:07:55.159Z,0
2017-03-27T02:08:36.034Z,0
2017-03-27T02:09:16.921Z,0
2017-03-27T02:09:57.817Z,0
2017-03-27T02:10:38.692Z,0
2017-03-27T02:11:19.572Z,0
2017-03-27T02:12:00.453Z,0
2017-03-27T02:12:41.336Z,0
2017-03-27T02:13:22.215Z,0
2017-03-27T02:14:03.104Z,0
2017-03-27T02:14:43.979Z,0
2017-03-27T02:15:24.868Z,0
2017-03-27T02:16:05.752Z,0
2017-03-27T02:16:46.634Z,0
2017-03-27T02:17:27.512Z,0
2017-03-27T02:18:08.408Z,0
2017-03-27T02:18:49.290Z,0
2017-03-27T02:19:30.169Z,0
2017-03-27T02:20:11.054Z,0
2017-03-27T02:20:51.937Z,0
2017-03-27T02:21:32.820Z,0
2017-03-27T02:22:13.702Z,0
2017-03-27T02:22:54.626Z,0
2017-03-27T02:23:35.463Z,0
2017-03-27T02:24:16.340Z,0
2017-03-27T02:24:57.225Z,0
2017-03-27T02:25:38.103Z,0
2017-03-27T02:26:18.987Z,0
2017-03-27T02:26:59.863Z,0
2017-03-27T02:27:40.748Z,0
2017-03-27T02:28:21.625Z,0
2017-03-27T02:29:02.500Z,0
2017-03-27T02:29:43.372Z,0
2017-03-27T02:30:24.259Z,0
2017-03-27T02:31:05.143Z,0
2017-03-27T02:31:46.019Z,0
2017-03-27T02:32:26.905Z,0
2017-03-27T02:33:07.788Z,0
2017-03-27T02:33:48.672Z,0
2017-03-27T02:34:29.551Z,0
2017-03-27T02:35:10.437Z,0
2017-03-27T02:35:51.329Z,0
2017-03-27T02:36:32.212Z,0
2017-03-27T02:37:13.085Z,0
2017-03-27T02:37:53.972Z,0
2017-03-27T02:38:34.853Z,0
2017-03-27T02:39:15.737Z,0
2017-03-27T02:39:56.629Z,0
2017-03-27T02:40:37.512Z,0
2017-03-27T02:41:18.394Z,0
2017-03-27T02:41:59.274Z,0
2017-03-27T02:42:40.159Z,0
2017-03-27T02:43:21.038Z,0
2017-03-27T02:44:01.921Z,0
2017-03-27T02:44:42.799Z,0
2017-03-27T02:45:23.685Z,0
2017-03-27T02:46:04.570Z,0
2017-03-27T02:46:45.456Z,0
2017-03-27T02:47:26.335Z,0
2017-03-27T02:48:07.232Z,0
2017-03-27T02:48:48.114Z,0
2017-03-27T02:49:28.992Z,0
2017-03-27T02:50:09.873Z,0
2017-03-27T02:50:50.754Z,0
2017-03-27T02:51:31.637Z,0
2017-03-27T02:52:12.513Z,0
2017-03-27T02:52:53.400Z,0
2017-03-27T02:53:34.277Z,0
2017-03-27T02:54:15.161Z,0
2017-03-27T02:54:56.051Z,0
2017-03-27T02:55:36.934Z,0
2017-03-27T02:56:17.819Z,0
2017-03-27T02:56:58.702Z,0
2017-03-27T02:57:39.583Z,0
2017-03-27T02:58:20.468Z,0
2017-03-27T02:59:01.350Z,0
2017-03-27T02:59:42.236Z,0
2017-03-27T03:00:23.121Z,0
2017-03-27T03:01:04.000Z,0
2017-03-27T03:01:44.877Z,0
2017-03-27T03:02:25.759Z,0
2017-03-27T03:03:06.647Z,0
2017-03-27T03:03:47.535Z,0
2017-03-27T03:04:28.425Z,0
2017-03-27T03:05:09.306Z,0
2017-03-27T03:05:50.190Z,0
2017-03-27T03:06:31.067Z,0
2017-03-27T03:07:11.953Z,0
2017-03-27T03:07:52.836Z,0
2017-03-27T03:08:33.724Z,0
2017-03-27T03:09:14.604Z,0
2017-03-27T03:09:55.487Z,0
2017-03-27T03:10:36.397Z,0
2017-03-27T03:11:17.298Z,0
2017-03-27T03:11:58.148Z,0
2017-03-27T03:12:39.026Z,0
2017-03-27T03:13:19.904Z,0
2017-03-27T03:14:00.789Z,0
2017-03-27T03:14:41.672Z,0
2017-03-27T03:15:22.553Z,0
2017-03-27T03:16:03.439Z,0
2017-03-27T03:16:44.324Z,0
2017-03-27T03:17:25.207Z,0
2017-03-27T03:18:06.094Z,0
2017-03-27T03:18:46.985Z,0
2017-03-27T03:19:27.881Z,0
2017-03-27T03:20:08.765Z,0
2017-03-27T03:20:49.649Z,0
2017-03-27T03:21:30.534Z,0
2017-03-27T03:22:11.418Z,0
2017-03-27T03:22:52.308Z,0
2017-03-27T03:23:33.183Z,0
2017-03-27T03:24:14.070Z,0
2017-03-27T03:24:54.957Z,0
2017-03-27T03:25:35.843Z,0
2017-03-27T03:26:16.729Z,0
2017-03-27T03:26:57.616Z,0
2017-03-27T03:27:38.483Z,0
2017-03-27T03:28:19.364Z,0
2017-03-27T03:29:00.246Z,0
2017-03-27T03:29:41.131Z,0
2017-03-27T03:30:22.016Z,0
2017-03-27T03:31:02.896Z,0
2017-03-27T03:31:43.778Z,0
2017-03-27T03:32:24.662Z,0
2017-03-27T03:33:05.549Z,0
2017-03-27T03:33:46.436Z,0
2017-03-27T03:34:27.321Z,0
2017-03-27T03:35:08.201Z,0
2017-03-27T03:35:49.078Z,0
2017-03-27T03:36:29.962Z,0
2017-03-27T03:37:10.842Z,0
2017-03-27T03:37:51.724Z,0
2017-03-27T03:38:32.609Z,0
2017-03-27T03:39:13.492Z,0
2017-03-27T03:39:54.388Z,0
2017-03-27T03:40:35.266Z,0
2017-03-27T03:41:16.151Z,0
2017-03-27T03:41:57.052Z,0
2017-03-27T03:42:37.932Z,0
2017-03-27T03:43:18.811Z,0
2017-03-27T03:43:59.677Z,0
2017-03-27T03:44:40.558Z,0
2017-03-27T03:45:21.443Z,0
2017-03-27T03:46:02.348Z,0
2017-03-27T03:46:43.226Z,0
2017-03-27T03:47:24.086Z,0
2017-03-27T03:48:04.969Z,0
2017-03-27T03:48:45.853Z,0
2017-03-27T03:49:26.726Z,0
2017-03-27T03:50:07.621Z,0
2017-03-27T03:50:48.510Z,0
2017-03-27T03:51:29.395Z,0
2017-03-27T03:52:10.275Z,0
2017-03-27T03:52:51.170Z,0
2017-03-27T03:53:32.051Z,0
2017-03-27T03:54:12.934Z,0
2017-03-27T03:54:53.810Z,0
2017-03-27T03:55:34.693Z,0
2017-03-27T03:56:15.575Z,0
2017-03-27T03:56:56.457Z,0
2017-03-27T03:57:37.338Z,0
2017-03-27T03:58:18.225Z,0
2017-03-27T03:58:59.111Z,0
2017-03-27T03:59:39.991Z,0
2017-03-27T04:00:20.878Z,0
2017-03-27T04:01:01.761Z,0
2017-03-27T04:01:42.655Z,0
2017-03-27T04:02:23.536Z,0
2017-03-27T04:03:04.419Z,0
2017-03-27T04:03:45.294Z,0
2017-03-27T04:04:26.175Z,0
2017-03-27T04:05:07.058Z,0
2017-03-27T04:05:47.934Z,0
2017-03-27T04:06:28.807Z,0
2017-03-27T04:07:09.687Z,0
2017-03-27T04:07:50.568Z,0
2017-03-27T04:08:31.451Z,0
2017-03-27T04:09:12.336Z,0
2017-03-27T04:09:53.222Z,0
2017-03-27T04:10:34.102Z,0
2017-03-27T04:11:14.986Z,0
2017-03-27T04:11:55.866Z,0
2017-03-27T04:12:36.752Z,0
2017-03-27T04:13:17.636Z,0
2017-03-27T04:13:58.516Z,0
2017-03-27T04:14:39.415Z,0
2017-03-27T04:15:20.289Z,0
2017-03-27T04:16:01.173Z,0
2017-03-27T04:16:42.052Z,0
2017-03-27T04:17:22.934Z,0
2017-03-27T04:18:03.823Z,0
2017-03-27T04:18:44.702Z,0
2017-03-27T04:19:25.581Z,0
2017-03-27T04:20:06.462Z,0
2017-03-27T04:20:47.343Z,0
2017-03-27T04:21:28.223Z,0
2017-03-27T04:22:09.109Z,0
2017-03-27T04:22:49.984Z,0
2017-03-27T04:23:30.863Z,0
2017-03-27T04:24:11.748Z,0
2017-03-27T04:24:52.637Z,0
2017-03-27T04:25:33.523Z,0
2017-03-27T04:26:14.417Z,0
2017-03-27T04:26:55.307Z,0
2017-03-27T04:27:36.188Z,0
2017-03-27T04:28:17.068Z,0
2017-03-27T04:28:57.949Z,0
2017-03-27T04:29:38.836Z,0
2017-03-27T04:30:19.719Z,0
2017-03-27T04:31:00.608Z,0
2017-03-27T04:31:41.476Z,0
2017-03-27T04:32:22.361Z,0
2017-03-27T04:33:03.245Z,0
2017-03-27T04:33:44.153Z,0
2017-03-27T04:34:25.003Z,0
2017-03-27T04:35:05.889Z,0
2017-03-27T04:35:46.770Z,0
2017-03-27T04:36:27.649Z,0
2017-03-27T04:37:08.530Z,0
2017-03-27T04:37:49.412Z,0
2017-03-27T04:38:30.295Z,0
2017-03-27T04:39:11.176Z,0
2017-03-27T04:39:52.056Z,0
2017-03-27T04:40:32.933Z,0
2017-03-27T04:41:13.817Z,0
2017-03-27T04:41:54.705Z,0
2017-03-27T04:42:35.590Z,0
2017-03-27T04:43:16.469Z,0
2017-03-27T04:43:57.350Z,0
2017-03-27T04:44:38.236Z,0
2017-03-27T04:45:19.112Z,0
2017-03-27T04:45:59.992Z,0
2017-03-27T04:46:40.872Z,5
2017-03-27T04:47:21.751Z,5
2017-03-27T04:48:02.638Z,5
2017-03-27T04:48:43.521Z,5
2017-03-27T04:49:24.398Z,5
2017-03-27T04:50:05.284Z,5
2017-03-27T04:50:46.165Z,5
2017-03-27T04:51:27.043Z,5
2017-03-27T04:52:07.933Z,5
2017-03-27T04:52:48.817Z,5
2017-03-27T04:53:29.705Z,5
2017-03-27T04:54:10.581Z,5
2017-03-27T04:54:51.465Z,10
2017-03-27T04:55:32.350Z,10
2017-03-27T04:56:13.238Z,10
2017-03-27T04:56:54.113Z,10
2017-03-27T04:57:34.979Z,10
2017-03-27T04:58:15.857Z,10
2017-03-27T04:58:56.741Z,10
2017-03-27T04:59:37.627Z,10
2017-03-27T05:00:18.506Z,15
2017-03-27T05:00:59.398Z,15
2017-03-27T05:01:40.279Z,15
2017-03-27T05:02:21.161Z,15
2017-03-27T05:03:02.041Z,15
2017-03-27T05:03:42.922Z,15
2017-03-27T05:04:23.803Z,15
2017-03-27T05:05:04.684Z,15
2017-03-27T05:05:45.564Z,20
2017-03-27T05:06:26.441Z,20
2017-03-27T05:07:07.321Z,20
2017-03-27T05:07:48.219Z,20
2017-03-27T05:08:29.098Z,20
2017-03-27T05:09:09.968Z,20
2017-03-27T05:09:50.849Z,25
2017-03-27T05:10:31.738Z,25
2017-03-27T05:11:12.620Z,25
2017-03-27T05:11:53.506Z,25
2017-03-27T05:12:34.385Z,25
2017-03-27T05:13:15.270Z,25
2017-03-27T05:13:56.150Z,25
2017-03-27T05:14:37.029Z,30
2017-03-27T05:15:17.913Z,30
2017-03-27T05:15:58.787Z,30
2017-03-27T05:16:39.672Z,30
2017-03-27T05:17:20.552Z,30
2017-03-27T05:18:01.436Z,30
2017-03-27T05:18:42.318Z,35
2017-03-27T05:19:23.201Z,35
2017-03-27T05:20:04.085Z,35
2017-03-27T05:20:44.961Z,35
2017-03-27T05:21:25.830Z,35
2017-03-27T05:22:06.704Z,35
2017-03-27T05:22:47.578Z,40
2017-03-27T05:23:28.467Z,40
2017-03-27T05:24:09.336Z,40
2017-03-27T05:24:50.219Z,40
2017-03-27T05:25:31.101Z,40
2017-03-27T05:26:11.985Z,40
2017-03-27T05:26:52.862Z,40
2017-03-27T05:27:33.742Z,45
2017-03-27T05:28:14.620Z,45
2017-03-27T05:28:55.504Z,45
2017-03-27T05:29:36.390Z,45
2017-03-27T05:30:17.264Z,45
2017-03-27T05:30:58.139Z,45
2017-03-27T05:31:39.019Z,50
2017-03-27T05:32:19.903Z,50
2017-03-27T05:33:00.783Z,50
2017-03-27T05:33:41.669Z,50
2017-03-27T05:34:22.541Z,50
2017-03-27T05:35:03.410Z,50
2017-03-27T05:35:44.284Z,50
2017-03-27T05:36:25.161Z,55
2017-03-27T05:37:06.041Z,55
2017-03-27T05:37:46.911Z,55
2017-03-27T05:38:27.792Z,55
2017-03-27T05:39:08.682Z,55
2017-03-27T05:39:49.567Z,55
2017-03-27T05:40:30.451Z,60
2017-03-27T05:41:11.329Z,60
2017-03-27T05:41:52.209Z,60
2017-03-27T05:42:33.088Z,60
2017-03-27T05:43:13.974Z,60
2017-03-27T05:43:54.851Z,60
2017-03-27T05:44:35.732Z,60
2017-03-27T05:45:16.610Z,65
2017-03-27T05:45:57.484Z,65
2017-03-27T05:46:38.368Z,65
2017-03-27T05:47:19.250Z,65
2017-03-27T05:48:00.135Z,65
2017-03-27T05:48:41.013Z,65
2017-03-27T05:49:21.893Z,70
2017-03-27T05:50:02.777Z,70
2017-03-27T05:50:43.659Z,70
2017-03-27T05:51:24.542Z,70
2017-03-27T05:52:05.428Z,70
2017-03-27T05:52:46.300Z,70
2017-03-27T05:53:27.174Z,70
2017-03-27T05:54:08.063Z,75
2017-03-27T05:54:48.947Z,75
2017-03-27T05:55:29.832Z,75
2017-03-27T05:56:10.712Z,75
2017-03-27T05:56:51.591Z,75
2017-03-27T05:57:32.474Z,75
2017-03-27T05:58:13.360Z,75
2017-03-27T05:58:54.243Z,75
2017-03-27T05:59:35.126Z,80
2017-03-27T06:00:16.005Z,80
2017-03-27T06:00:56.886Z,80
2017-03-27T06:01:37.758Z,80
2017-03-27T06:02:18.640Z,80
2017-03-27T06:02:59.515Z,80
2017-03-27T06:03:40.397Z,80
2017-03-27T06:04:21.280Z,85
2017-03-27T06:05:02.202Z,85
2017-03-27T06:05:43.026Z,85
2017-03-27T06:06:23.911Z,85
2017-03-27T06:07:04.798Z,85
2017-03-27T06:07:45.678Z,85
2017-03-27T06:08:26.558Z,85
2017-03-27T06:09:07.438Z,90
2017-03-27T06:09:48.319Z,90
2017-03-27T06:10:29.202Z,90
2017-03-27T06:11:10.100Z,90
2017-03-27T06:11:50.982Z,90
2017-03-27T06:12:31.865Z,90
2017-03-27T06:13:12.749Z,90
2017-03-27T06:13:53.623Z,90
2017-03-27T06:14:34.514Z,95
2017-03-27T06:15:15.395Z,95
2017-03-27T06:15:56.276Z,95
2017-03-27T06:16:37.160Z,95
2017-03-27T06:17:18.047Z,95
2017-03-27T06:17:58.929Z,95
2017-03-27T06:18:39.802Z,95
2017-03-27T06:19:20.684Z,95
2017-03-27T06:20:01.570Z,95
2017-03-27T06:20:42.452Z,100
2017-03-27T06:21:23.336Z,100
2017-03-27T06:22:04.220Z,100
2017-03-27T06:22:45.106Z,100
2017-03-27T06:23:25.989Z,100
2017-03-27T06:24:06.871Z,100
2017-03-27T06:24:47.758Z,100
2017-03-27T06:25:28.644Z,100
2017-03-27T06:26:09.523Z,100
2017-03-27T06:26:50.404Z,105
2017-03-27T06:27:31.289Z,105
2017-03-27T06:28:12.172Z,105
2017-03-27T06:28:53.062Z,105
2017-03-27T06:29:33.940Z,105
2017-03-27T06:30:14.825Z,105
2017-03-27T06:30:55.707Z,105
2017-03-27T06:31:36.589Z,105
2017-03-27T06:32:17.473Z,105
2017-03-27T06:32:58.355Z,110
2017-03-27T06:33:39.243Z,110
2017-03-27T06:34:20.150Z,110
2017-03-27T06:35:01.039Z,110
2017-03-27T06:35:41.910Z,110
2017-03-27T06:36:22.795Z,110
2017-03-27T06:37:03.683Z,110
2017-03-27T06:37:44.566Z,110
2017-03-27T06:38:25.452Z,115
2017-03-27T06:39:06.333Z,115
2017-03-27T06:39:47.217Z,115
2017-03-27T06:40:28.151Z,115
2017-03-27T06:41:09.013Z,115
2017-03-27T06:41:49.898Z,115
2017-03-27T06:42:30.776Z,115
2017-03-27T06:43:11.688Z,115
2017-03-27T06:43:52.572Z,120
2017-03-27T06:44:33.451Z,120
2017-03-27T06:45:14.334Z,120
2017-03-27T06:45:55.213Z,120
2017-03-27T06:46:36.092Z,120
2017-03-27T06:47:16.967Z,120
2017-03-27T06:47:57.845Z,120
2017-03-27T06:48:38.729Z,120
2017-03-27T06:49:19.610Z,120
2017-03-27T06:50:00.497Z,125
2017-03-27T06:50:41.382Z,125
2017-03-27T06:51:22.258Z,125
2017-03-27T06:52:03.144Z,125
2017-03-27T06:52:44.003Z,125
2017-03-27T06:53:24.887Z,125
2017-03-27T06:54:05.766Z,125
2017-03-27T06:54:46.649Z,125
2017-03-27T06:55:27.535Z,125
2017-03-27T06:56:08.420Z,125
2017-03-27T06:56:49.302Z,130
2017-03-27T06:57:30.184Z,130
2017-03-27T06:58:11.068Z,130
2017-03-27T06:58:51.952Z,130
2017-03-27T06:59:32.836Z,130
2017-03-27T07:00:13.719Z,130
2017-03-27T07:00:54.605Z,130
2017-03-27T07:01:35.489Z,130
2017-03-27T07:02:16.378Z,130
2017-03-27T07:02:57.259Z,130
2017-03-27T07:03:38.139Z,135
2017-03-27T07:04:19.034Z,135
2017-03-27T07:04:59.905Z,135
2017-03-27T07:05:40.802Z,135
2017-03-27T07:06:21.666Z,135
2017-03-27T07:07:02.543Z,135
2017-03-27T07:07:43.430Z,135
2017-03-27T07:08:24.312Z,135
2017-03-27T07:09:05.198Z,135
2017-03-27T07:09:46.087Z,135
2017-03-27T07:10:26.971Z,140
2017-03-27T07:11:07.854Z,140
2017-03-27T07:11:48.739Z,140
2017-03-27T07:12:29.620Z,140
2017-03-27T07:13:10.505Z,140
2017-03-27T07:13:51.385Z,140
2017-03-27T07:14:32.274Z,140
2017-03-27T07:15:13.157Z,140
2017-03-27T07:15:54.041Z,140
2017-03-27T07:16:34.949Z,145
2017-03-27T07:17:15.803Z,145
2017-03-27T07:17:56.687Z,145
2017-03-27T07:18:37.568Z,145
2017-03-27T07:19:18.446Z,145
2017-03-27T07:19:59.330Z,145
2017-03-27T07:20:40.208Z,145
2017-03-27T07:21:21.081Z,145
2017-03-27T07:22:01.973Z,145
2017-03-27T07:22:42.848Z,145
2017-03-27T07:23:23.722Z,150
2017-03-27T07:24:04.601Z,150
2017-03-27T07:24:45.482Z,150
2017-03-27T07:25:26.368Z,150
2017-03-27T07:26:07.252Z,150
2017-03-27T07:26:48.134Z,150
2017-03-27T07:27:29.016Z,150
2017-03-27T07:28:09.906Z,150
2017-03-27T07:28:50.794Z,150
2017-03-27T07:29:31.682Z,150
2017-03-27T07:30:12.566Z,155
2017-03-27T07:30:53.447Z,155
2017-03-27T07:31:34.328Z,155
2017-03-27T07:32:15.209Z,155
2017-03-27T07:32:56.092Z,155
2017-03-27T07:33:36.974Z,155
2017-03-27T07:34:17.859Z,155
2017-03-27T07:34:58.765Z,155
2017-03-27T07:35:39.653Z,155
2017-03-27T07:36:20.539Z,160
2017-03-27T07:37:01.448Z,160
2017-03-27T07:37:42.332Z,160
2017-03-27T07:38:23.212Z,160
2017-03-27T07:39:04.093Z,160
2017-03-27T07:39:44.978Z,160
2017-03-27T07:40:25.859Z,165
2017-03-27T07:41:06.737Z,165
2017-03-27T07:41:47.620Z,165
2017-03-27T07:42:28.500Z,165
2017-03-27T07:43:09.399Z,165
2017-03-27T07:43:50.256Z,165
2017-03-27T07:44:31.138Z,170
2017-03-27T07:45:12.024Z,170
2017-03-27T07:45:52.913Z,165
2017-03-27T07:46:33.802Z,170
2017-03-27T07:47:14.686Z,170
2017-03-27T07:47:55.574Z,170
2017-03-27T07:48:36.456Z,170
2017-03-27T07:49:17.342Z,175
2017-03-27T07:49:58.220Z,185
2017-03-27T07:50:39.100Z,180
2017-03-27T07:51:19.988Z,185
2017-03-27T07:52:00.876Z,190
2017-03-27T07:52:41.765Z,200
2017-03-27T07:53:22.651Z,205
2017-03-27T07:54:03.533Z,215
2017-03-27T07:54:44.439Z,225
2017-03-27T07:55:25.462Z,235
2017-03-27T07:56:06.371Z,245
2017-03-27T07:56:47.271Z,250
2017-03-27T07:57:28.143Z,260
2017-03-27T07:58:09.021Z,280
2017-03-27T07:58:49.912Z,285
2017-03-27T07:59:30.794Z,285
2017-03-27T08:00:11.676Z,290
2017-03-27T08:00:52.573Z,295
2017-03-27T08:01:33.502Z,305
2017-03-27T08:02:14.368Z,310
2017-03-27T08:02:55.253Z,305
2017-03-27T08:03:36.121Z,310
2017-03-27T08:04:17.005Z,315
2017-03-27T08:04:57.892Z,320
2017-03-27T08:05:38.784Z,320
2017-03-27T08:06:19.678Z,325
2017-03-27T08:07:00.566Z,330
2017-03-27T08:07:41.476Z,330
2017-03-27T08:08:22.356Z,365
2017-03-27T08:09:03.243Z,685
2017-03-27T08:09:44.127Z,1225
2017-03-27T08:10:25.015Z,1635
2017-03-27T08:11:05.899Z,1870
2017-03-27T08:11:46.788Z,1840
2017-03-27T08:12:27.680Z,1885
2017-03-27T08:13:08.571Z,1865
2017-03-27T08:13:49.462Z,1885
2017-03-27T08:14:30.362Z,1960
2017-03-27T08:15:11.239Z,1985
2017-03-27T08:15:52.134Z,1990
2017-03-27T08:16:33.026Z,2015
2017-03-27T08:17:13.913Z,2035
2017-03-27T08:17:54.800Z,1945
2017-03-27T08:18:35.698Z,1895
2017-03-27T08:19:16.596Z,1910
2017-03-27T08:19:57.490Z,1920
2017-03-27T08:20:38.382Z,2000
2017-03-27T08:21:19.273Z,1990
2017-03-27T08:22:00.170Z,1980
2017-03-27T08:22:41.060Z,1975
2017-03-27T08:23:21.960Z,1970
2017-03-27T08:24:02.853Z,2000
2017-03-27T08:24:43.744Z,2055
2017-03-27T08:25:24.642Z,2060
2017-03-27T08:26:05.536Z,2020
2017-03-27T08:26:46.435Z,1985
2017-03-27T08:27:27.340Z,1830
2017-03-27T08:28:08.231Z,1840
2017-03-27T08:28:49.135Z,2025
2017-03-27T08:29:30.036Z,2130
2017-03-27T08:30:10.928Z,2115
2017-03-27T08:30:51.827Z,2120
2017-03-27T08:31:32.733Z,2125
2017-03-27T08:32:13.628Z,2135
2017-03-27T08:32:54.540Z,2150
2017-03-27T08:33:35.439Z,2185
2017-03-27T08:34:16.336Z,2205
2017-03-27T08:34:57.257Z,2220
2017-03-27T08:35:38.150Z,2250
2017-03-27T08:36:19.083Z,2290
2017-03-27T08:36:59.992Z,2315
2017-03-27T08:37:40.911Z,2275
2017-03-27T08:38:21.812Z,2165
2017-03-27T08:39:02.720Z,2155
2017-03-27T08:39:43.618Z,2160
2017-03-27T08:40:24.518Z,2270
2017-03-27T08:41:05.417Z,2155
2017-03-27T08:41:46.320Z,2135
2017-03-27T08:42:27.221Z,2160
2017-03-27T08:43:08.121Z,2175
2017-03-27T08:43:49.043Z,2270
2017-03-27T08:44:29.933Z,2255
2017-03-27T08:45:10.848Z,2280
2017-03-27T08:45:51.749Z,2280
2017-03-27T08:46:32.656Z,2305
2017-03-27T08:47:13.565Z,2300
2017-03-27T08:47:54.457Z,2280
2017-03-27T08:48:35.369Z,2170
2017-03-27T08:49:16.276Z,2145
2017-03-27T08:49:57.182Z,2205
2017-03-27T08:50:38.062Z,2325
2017-03-27T08:51:18.963Z,2355
2017-03-27T08:51:59.866Z,2385
2017-03-27T08:52:40.797Z,2390
2017-03-27T08:53:21.695Z,2410
2017-03-27T08:54:02.608Z,2435
2017-03-27T08:54:43.483Z,2235
2017-03-27T08:55:24.392Z,1940
2017-03-27T08:56:05.297Z,1790
2017-03-27T08:56:46.198Z,1845
2017-03-27T08:57:27.111Z,1900
2017-03-27T08:58:08.023Z,1970
2017-03-27T08:58:48.918Z,2050
2017-03-27T08:59:29.820Z,1675
2017-03-27T09:00:10.727Z,890
2017-03-27T09:00:51.627Z,395
2017-03-27T09:01:32.530Z,360
2017-03-27T09:02:13.428Z,360
2017-03-27T09:02:54.323Z,365
2017-03-27T09:03:35.229Z,370
2017-03-27T09:04:16.137Z,360
2017-03-27T09:04:57.048Z,360
2017-03-27T09:05:37.940Z,385
2017-03-27T09:06:18.845Z,775
2017-03-27T09:06:59.737Z,1010
2017-03-27T09:07:40.642Z,870
2017-03-27T09:08:21.548Z,445
2017-03-27T09:09:02.460Z,450
2017-03-27T09:09:43.363Z,1040
2017-03-27T09:10:24.272Z,1830
2017-03-27T09:11:05.175Z,2395
2017-03-27T09:11:46.075Z,2430
2017-03-27T09:12:26.980Z,2390
2017-03-27T09:13:07.911Z,2370
2017-03-27T09:13:48.817Z,2210
2017-03-27T09:14:29.727Z,2135
2017-03-27T09:15:10.628Z,2130
2017-03-27T09:15:51.530Z,2235
2017-03-27T09:16:32.450Z,2260
2017-03-27T09:17:13.359Z,2305
2017-03-27T09:17:54.273Z,2350
2017-03-27T09:18:35.197Z,2375
2017-03-27T09:19:16.113Z,2415
2017-03-27T09:19:57.020Z,2430
2017-03-27T09:20:37.920Z,2440
2017-03-27T09:21:18.836Z,2450
2017-03-27T09:21:59.735Z,2290
2017-03-27T09:22:40.642Z,2245
2017-03-27T09:23:21.557Z,2270
2017-03-27T09:24:02.441Z,2425
2017-03-27T09:24:43.352Z,2435
2017-03-27T09:25:24.253Z,2435
2017-03-27T09:26:05.161Z,2470
2017-03-27T09:26:46.066Z,2490
2017-03-27T09:27:26.974Z,2485
2017-03-27T09:28:07.877Z,2500
2017-03-27T09:28:48.787Z,2500
2017-03-27T09:29:29.697Z,2500
2017-03-27T09:30:10.609Z,2495
2017-03-27T09:30:51.498Z,2515
2017-03-27T09:31:32.407Z,2510
2017-03-27T09:32:13.312Z,2355
2017-03-27T09:32:54.226Z,2290
2017-03-27T09:33:35.118Z,2345
2017-03-27T09:34:16.059Z,2505
2017-03-27T09:34:56.967Z,2515
2017-03-27T09:35:37.872Z,2535
2017-03-27T09:36:18.781Z,2550
2017-03-27T09:36:59.686Z,2580
2017-03-27T09:37:40.593Z,2620
2017-03-27T09:38:21.543Z,2645
2017-03-27T09:39:02.450Z,2660
2017-03-27T09:39:43.363Z,2665
2017-03-27T09:40:24.273Z,2660
2017-03-27T09:41:05.178Z,2570
2017-03-27T09:41:46.092Z,2460
2017-03-27T09:42:26.996Z,2465
2017-03-27T09:43:07.908Z,2545